Messwerte Alexandria

Temperatur

Temperatur
°C
1594274400 1.00 1.00 26
1594278000 2.00 2.00 25
1594281600 3.00 3.00 25
1594285200 4.00 4.00 25
1594288800 5.00 5.00 25
1594292400 6.00 6.00 25
1594296000 7.00 7.00 26
1594299600 8.00 8.00 27
1594303200 9.00 9.00
1594306800 10.00 10.00 29
1594310400 11.00 11.00 32
1594314000 12.00 12.00 32
1594317600 13.00 13.00 34
1594321200 14.00 14.00 33
1594324800 15.00 15.00 34
1594328400 16.00 16.00 35
1594332000 17.00 17.00 34
1594335600 18.00 18.00 34
1594339200 19.00 19.00 31
1594342800 20.00 20.00 30
1594346400 21.00 21.00 29
1594350000 22.00 22.00 28
1594353600 23.00 23.00 28
1594357200 0.00 0.00 27

Aktuellste Messwerte

Wettercharakter
Wetter: klar
Temperatur
27 °C
Feuchtigkeit
85 %
Wind
5 km/hWindrichtung: Südwest
Luftdruck
1015 hPa
Messzeit: 10. Juli 2020, 1.00Datenquelle: METAR

Weitere Messstationen in der Nähe

Messstation Temperatur Entfernung
Alexandria 27 °C 25 km
Fort Polk - 77 km
Fort Polk 26 °C 80 km
Oakdale 24 °C 80 km
Natchitoches 27 °C 85 km
Fort Polk 26 °C 113 km
De Ridder 26 °C 117 km

Wind

Windrichtung Böen Mittelwind
° km/h km/h
1594274400 1.00 0.00 - 1.00 210° 5
1594278000 2.00 1.00 - 2.00 220° 5
1594281600 3.00 2.00 - 3.00 220° 5
1594285200 4.00 3.00 - 4.00 230° 5
1594288800 5.00 4.00 - 5.00 230° 10
1594292400 6.00 5.00 - 6.00 230° 10
1594296000 7.00 6.00 - 7.00 250° 10
1594299600 8.00 7.00 - 8.00 270° 10
1594303200 9.00 8.00 - 9.00
1594306800 10.00 9.00 - 10.00 260° 15
1594310400 11.00 10.00 - 11.00 250° 30 20
1594314000 12.00 11.00 - 12.00 200° 10
1594317600 13.00 12.00 - 13.00
1594321200 14.00 13.00 - 14.00 260° 15
1594324800 15.00 14.00 - 15.00 230° 10
1594328400 16.00 15.00 - 16.00 250° 15
1594332000 17.00 16.00 - 17.00 230° 10
1594335600 18.00 17.00 - 18.00 220° 5
1594339200 19.00 18.00 - 19.00 180° 5
1594342800 20.00 19.00 - 20.00 180° 15
1594346400 21.00 20.00 - 21.00 0
1594350000 22.00 21.00 - 22.00 200° 5
1594353600 23.00 22.00 - 23.00 230° 10
1594357200 0.00 23.00 - 0.00 230° 10

Ihre Wetterstation

Fehlt Ihre Wetterstation auf unserem Portal?

Schreiben Sie an network@meteonews.ch

Klima

Wann ist es am wärmsten? Wann regnet es am wenigsten? Unsere Klimadaten geben Auskunft.